Time;durP1;ratioP1;P1;durP2;ratioP2;P2;SDS_P1;SDS_P2;PMS_P1;PMS_P2;Temp;Humidity;BMP_temperature;BMP_pressure;BME280_temperature;BME280_humidity;BME280_pressure;Samples;Min_cycle;Max_cycle;Signal;HPM_P1;HPM_P2
2022/10/11 00:00:52;;;;;;;12.13;6.75;;;6.50;99.90;;;;;;5055680;28;20048;-68
2022/10/11 00:03:19;;;;;;;8.25;5.60;;;6.50;99.90;;;;;;5040021;28;20131;-68
2022/10/11 00:05:46;;;;;;;16.17;6.47;;;6.50;99.90;;;;;;5055981;28;20040;-68
2022/10/11 00:08:13;;;;;;;10.77;6.65;;;6.40;99.90;;;;;;5055553;28;20080;-68
2022/10/11 00:10:40;;;;;;;13.13;5.00;;;6.40;99.90;;;;;;5057562;28;20072;-67
2022/10/11 00:13:07;;;;;;;8.52;4.88;;;6.40;99.90;;;;;;5056674;28;20476;-68
2022/10/11 00:15:34;;;;;;;10.80;5.78;;;6.40;99.90;;;;;;5055388;28;20045;-68
2022/10/11 00:18:01;;;;;;;10.45;5.72;;;6.30;99.90;;;;;;5055561;28;20052;-68
2022/10/11 00:20:31;;;;;;;9.95;4.70;;;6.30;99.90;;;;;;5055575;28;20052;-68
2022/10/11 00:22:58;;;;;;;10.13;4.57;;;6.30;99.90;;;;;;5056461;28;20469;-68
2022/10/11 00:25:24;;;;;;;8.10;5.15;;;6.20;99.90;;;;;;5055207;28;20094;-68
2022/10/11 00:27:51;;;;;;;14.23;6.18;;;6.20;99.90;;;;;;5055506;28;20048;-68
2022/10/11 00:30:18;;;;;;;15.85;5.55;;;6.20;99.90;;;;;;5055074;28;20067;-68
2022/10/11 00:32:45;;;;;;;9.07;5.28;;;6.10;99.90;;;;;;5056555;28;20075;-68
2022/10/11 00:35:12;;;;;;;16.98;5.18;;;6.10;99.90;;;;;;5055007;28;20060;-68
2022/10/11 00:37:39;;;;;;;9.43;5.18;;;6.10;99.90;;;;;;5055384;28;20045;-68
2022/10/11 00:40:08;;;;;;;18.50;5.97;;;6.10;99.90;;;;;;5055784;28;20073;-68
2022/10/11 00:42:35;;;;;;;13.98;6.05;;;6.10;99.90;;;;;;5056161;28;20341;-68
2022/10/11 00:45:41;;;;;;;11.65;4.53;;;6.00;99.90;;;;;;5038467;28;20049;-68
2022/10/11 00:48:17;;;;;;;11.88;6.20;;;6.00;99.90;;;;;;5050933;28;20041;-68
2022/10/11 00:50:44;;;;;;;11.18;4.95;;;5.90;99.90;;;;;;5055414;28;20377;-68
2022/10/11 00:53:11;;;;;;;15.82;5.85;;;5.90;99.90;;;;;;5039139;28;20049;-68
2022/10/11 00:55:48;;;;;;;14.00;6.38;;;5.90;99.90;;;;;;5054706;28;20519;-68
2022/10/11 00:58:15;;;;;;;11.15;4.30;;;5.90;99.90;;;;;;5055435;28;20110;-68
2022/10/11 01:00:42;;;;;;;13.55;5.68;;;5.90;99.90;;;;;;5054135;28;20493;-68
2022/10/11 01:03:08;;;;;;;10.95;4.28;;;5.80;99.90;;;;;;5055570;28;20053;-68
2022/10/11 01:05:36;;;;;;;9.48;4.63;;;5.80;99.90;;;;;;5054549;28;20052;-68
2022/10/11 01:08:03;;;;;;;8.98;4.60;;;5.80;99.90;;;;;;5054466;28;20045;-68
2022/10/11 01:10:30;;;;;;;11.77;4.65;;;5.80;99.90;;;;;;5054409;28;20485;-68
2022/10/11 01:12:57;;;;;;;10.43;4.32;;;5.70;99.90;;;;;;5038463;28;20053;-68
2022/10/11 01:15:34;;;;;;;12.85;4.82;;;5.70;99.90;;;;;;5055702;28;20057;-69
2022/10/11 01:18:12;;;;;;;12.40;4.50;;;5.70;99.90;;;;;;5039157;28;20068;-69
2022/10/11 01:20:54;;;;;;;9.65;4.85;;;5.70;99.90;;;;;;5055451;28;20049;-69
2022/10/11 01:23:27;;;;;;;13.02;4.40;;;5.70;99.90;;;;;;5055236;28;20041;-69
2022/10/11 01:26:20;;;;;;;12.10;4.40;;;5.70;99.90;;;;;;5055311;28;20052;-69
2022/10/11 01:29:00;;;;;;;7.85;3.88;;;5.70;99.90;;;;;;5040952;28;20053;-69
2022/10/11 01:31:40;;;;;;;10.48;4.18;;;5.70;99.90;;;;;;5054254;28;20053;-69
2022/10/11 01:34:09;;;;;;;12.65;5.10;;;5.70;99.90;;;;;;5054244;28;20480;-69
2022/10/11 01:36:44;;;;;;;11.48;4.97;;;5.60;99.90;;;;;;5055819;28;20053;-69
2022/10/11 01:39:20;;;;;;;8.30;5.32;;;5.60;99.90;;;;;;5054714;28;20157;-69
2022/10/11 01:41:49;;;;;;;10.68;4.82;;;5.60;99.90;;;;;;5054800;28;20057;-69
2022/10/11 01:44:16;;;;;;;13.18;3.85;;;5.60;99.90;;;;;;5054793;28;20103;-68
2022/10/11 01:46:42;;;;;;;8.82;4.20;;;5.50;99.90;;;;;;5053579;28;20106;-69
2022/10/11 01:49:09;;;;;;;12.77;5.15;;;5.50;99.90;;;;;;5055068;28;20498;-69
2022/10/11 01:51:41;;;;;;;14.70;5.25;;;5.50;99.90;;;;;;5054422;28;20045;-69
2022/10/11 01:54:27;;;;;;;13.98;5.03;;;5.50;99.90;;;;;;5054653;28;20423;-69
2022/10/11 01:57:58;;;;;;;16.05;4.72;;;5.40;99.90;;;;;;5054798;28;20037;-69
2022/10/11 02:00:29;;;;;;;11.82;5.18;;;5.40;99.90;;;;;;5037596;28;20106;-69
2022/10/11 02:02:56;;;;;;;9.85;3.88;;;5.40;99.90;;;;;;5054321;28;20063;-69
2022/10/11 02:05:48;;;;;;;8.38;4.10;;;5.40;99.90;;;;;;5055360;28;20362;-69
2022/10/11 02:08:36;;;;;;;8.90;4.28;;;5.30;99.90;;;;;;5038530;28;20055;-69
2022/10/11 02:11:21;;;;;;;11.95;6.00;;;5.30;99.90;;;;;;5054727;28;20049;-69
2022/10/11 02:13:55;;;;;;;11.05;5.20;;;5.30;99.90;;;;;;5053699;28;20041;-69
2022/10/11 02:16:25;;;;;;;7.53;4.10;;;5.30;99.90;;;;;;5037569;28;20048;-69
2022/10/11 02:18:52;;;;;;;12.20;5.75;;;5.20;99.90;;;;;;5036756;28;20543;-69
2022/10/11 02:21:19;;;;;;;12.82;5.35;;;5.20;99.90;;;;;;5054056;28;20044;-69
2022/10/11 02:24:00;;;;;;;11.15;4.43;;;5.20;99.90;;;;;;5053111;28;20380;-69
2022/10/11 02:26:28;;;;;;;10.68;4.05;;;5.20;99.90;;;;;;5036545;28;20045;-69
2022/10/11 02:28:56;;;;;;;12.20;5.55;;;5.20;99.90;;;;;;5053212;28;20468;-69
2022/10/11 02:31:23;;;;;;;12.60;4.00;;;5.20;99.90;;;;;;5052791;28;20041;-69
2022/10/11 02:33:57;;;;;;;9.10;4.25;;;5.10;99.90;;;;;;5036305;28;20045;-69
2022/10/11 02:36:40;;;;;;;14.50;4.68;;;5.10;99.90;;;;;;5053121;28;20059;-69
2022/10/11 02:39:12;;;;;;;11.75;5.35;;;5.20;99.90;;;;;;5036215;28;20102;-68
2022/10/11 02:41:41;;;;;;;15.75;4.43;;;5.10;99.90;;;;;;5053189;28;20061;-69
2022/10/11 02:44:11;;;;;;;9.40;4.13;;;5.10;99.90;;;;;;5052638;28;20045;-69
2022/10/11 02:46:38;;;;;;;14.23;5.30;;;5.10;99.90;;;;;;5036010;28;20332;-69
2022/10/11 02:49:06;;;;;;;13.27;6.28;;;5.10;99.90;;;;;;5052493;28;20527;-70
2022/10/11 02:51:33;;;;;;;10.82;4.82;;;5.10;99.90;;;;;;5052708;28;20099;-69
2022/10/11 02:53:59;;;;;;;16.38;5.32;;;5.00;99.90;;;;;;5052692;28;20087;-69
2022/10/11 02:56:26;;;;;;;11.00;5.10;;;5.00;99.90;;;;;;5052715;28;20358;-69
2022/10/11 02:58:53;;;;;;;10.90;5.43;;;5.00;99.90;;;;;;5052298;28;20465;-69
2022/10/11 03:01:20;;;;;;;9.73;5.13;;;4.90;99.90;;;;;;5052262;28;20056;-69
2022/10/11 03:03:47;;;;;;;14.55;5.22;;;4.90;99.90;;;;;;5052631;28;20166;-69
2022/10/11 03:06:14;;;;;;;12.48;4.70;;;4.90;99.90;;;;;;5036585;28;20098;-69
2022/10/11 03:08:41;;;;;;;13.25;5.15;;;4.90;99.90;;;;;;5035986;28;20040;-69
2022/10/11 03:11:08;;;;;;;11.35;5.10;;;4.80;99.90;;;;;;5052700;28;20062;-69
2022/10/11 03:13:34;;;;;;;10.02;6.10;;;4.80;99.90;;;;;;5053067;28;20045;-70
2022/10/11 03:16:01;;;;;;;12.02;5.10;;;4.80;99.90;;;;;;5052020;28;20098;-69
2022/10/11 03:18:33;;;;;;;8.45;4.65;;;4.70;99.90;;;;;;5054344;28;20044;-69
2022/10/11 03:21:00;;;;;;;10.55;4.45;;;4.70;99.90;;;;;;5052822;28;20142;-69
2022/10/11 03:23:27;;;;;;;10.82;4.30;;;4.70;99.90;;;;;;5053397;28;20056;-69
2022/10/11 03:25:53;;;;;;;11.07;5.70;;;4.70;99.90;;;;;;5036534;28;20095;-70
2022/10/11 03:28:20;;;;;;;12.35;5.22;;;4.70;99.90;;;;;;5036294;28;20052;-69
2022/10/11 03:30:48;;;;;;;10.65;5.35;;;4.60;99.90;;;;;;5053338;28;20055;-70
2022/10/11 03:33:16;;;;;;;9.15;4.90;;;4.60;99.90;;;;;;5053078;28;20060;-69
2022/10/11 03:35:44;;;;;;;9.00;4.30;;;4.60;99.90;;;;;;5052017;28;20052;-69
2022/10/11 03:38:12;;;;;;;8.50;5.50;;;4.60;99.90;;;;;;5052119;28;20044;-68
2022/10/11 03:40:40;;;;;;;11.73;4.72;;;4.60;99.90;;;;;;5051821;28;20477;-69
2022/10/11 03:43:07;;;;;;;10.43;5.10;;;4.60;99.90;;;;;;5051655;28;20048;-69
2022/10/11 03:45:34;;;;;;;8.45;4.47;;;4.50;99.90;;;;;;5053170;28;20044;-69
2022/10/11 03:48:01;;;;;;;9.38;4.78;;;4.50;99.90;;;;;;5052814;28;20491;-69
2022/10/11 03:50:28;;;;;;;7.80;4.90;;;4.50;99.90;;;;;;5051982;28;20045;-69
2022/10/11 03:52:54;;;;;;;7.63;4.68;;;4.50;99.90;;;;;;5051626;28;20049;-69
2022/10/11 03:55:21;;;;;;;11.65;5.00;;;4.40;99.90;;;;;;5053027;28;20037;-69
2022/10/11 03:57:48;;;;;;;10.63;4.45;;;4.40;99.90;;;;;;5051731;28;20045;-69
2022/10/11 04:00:15;;;;;;;16.00;5.03;;;4.40;99.90;;;;;;5053052;28;20037;-69
2022/10/11 04:02:42;;;;;;;6.93;5.03;;;4.40;99.90;;;;;;5035285;28;20143;-69
2022/10/11 04:05:11;;;;;;;9.95;4.40;;;4.40;99.90;;;;;;5051491;28;20049;-69
2022/10/11 04:07:38;;;;;;;14.00;4.70;;;4.40;99.90;;;;;;5051549;28;20055;-69
2022/10/11 04:10:06;;;;;;;9.25;4.30;;;4.40;99.90;;;;;;5051656;28;20079;-69
2022/10/11 04:12:33;;;;;;;11.88;6.07;;;4.40;99.90;;;;;;5052637;28;20476;-69
2022/10/11 04:14:59;;;;;;;9.70;5.07;;;4.40;99.90;;;;;;5051395;28;20128;-68
2022/10/11 04:17:26;;;;;;;8.75;4.55;;;4.40;99.90;;;;;;5051337;28;20491;-69
2022/10/11 04:19:53;;;;;;;10.43;4.13;;;4.30;99.90;;;;;;5035086;28;20075;-69
2022/10/11 04:22:20;;;;;;;7.95;4.45;;;4.30;99.90;;;;;;5051390;28;20091;-69
2022/10/11 04:24:47;;;;;;;7.97;4.32;;;4.30;99.90;;;;;;5052882;28;20383;-69
2022/10/11 04:27:14;;;;;;;8.52;4.65;;;4.20;99.90;;;;;;5051299;28;20075;-69
2022/10/11 04:29:40;;;;;;;8.00;3.90;;;4.20;99.90;;;;;;5052088;28;20452;-69
2022/10/11 04:32:07;;;;;;;8.82;4.65;;;4.20;99.90;;;;;;5051310;28;20480;-69
2022/10/11 04:34:34;;;;;;;10.45;4.43;;;4.20;99.90;;;;;;5035422;28;20067;-68
2022/10/11 04:37:01;;;;;;;8.90;4.97;;;4.20;99.90;;;;;;5056241;28;20037;-69
2022/10/11 04:39:28;;;;;;;7.15;4.70;;;4.10;99.90;;;;;;5055053;28;20530;-69
2022/10/11 04:41:55;;;;;;;8.35;4.03;;;4.10;99.90;;;;;;5039449;28;20411;-68
2022/10/11 04:44:22;;;;;;;8.02;5.03;;;4.10;99.90;;;;;;5056799;28;20067;-69
2022/10/11 04:46:48;;;;;;;9.45;5.20;;;4.10;99.90;;;;;;5056837;28;20037;-69
2022/10/11 04:49:15;;;;;;;5.88;3.88;;;4.00;99.90;;;;;;5054841;28;20092;-69
2022/10/11 04:51:42;;;;;;;9.75;3.85;;;4.00;99.90;;;;;;5055923;28;20472;-69
2022/10/11 04:54:09;;;;;;;6.50;4.53;;;4.00;99.90;;;;;;5054613;28;20103;-69
2022/10/11 04:56:36;;;;;;;9.02;4.45;;;4.00;99.90;;;;;;5056634;28;20407;-69
2022/10/11 04:59:03;;;;;;;10.15;4.20;;;4.00;99.90;;;;;;5055855;28;20094;-69
2022/10/11 05:01:29;;;;;;;11.18;4.85;;;4.00;99.90;;;;;;5054376;28;20057;-69
2022/10/11 05:03:56;;;;;;;7.80;4.82;;;3.90;99.90;;;;;;5038100;28;20044;-69
2022/10/11 05:06:23;;;;;;;10.90;4.75;;;3.90;99.90;;;;;;5038361;28;20044;-69
2022/10/11 05:08:50;;;;;;;7.72;4.93;;;3.90;99.90;;;;;;5056471;28;20094;-69
2022/10/11 05:11:17;;;;;;;7.28;4.40;;;3.90;99.90;;;;;;5054488;28;20583;-68
2022/10/11 05:13:44;;;;;;;12.38;4.75;;;3.90;99.90;;;;;;5056361;28;20041;-69
2022/10/11 05:16:11;;;;;;;9.15;5.10;;;3.90;99.90;;;;;;5037713;28;20374;-68
2022/10/11 05:18:38;;;;;;;10.75;4.88;;;3.90;99.90;;;;;;5054164;28;20060;-69
2022/10/11 05:21:15;;;;;;;12.65;5.57;;;3.90;99.90;;;;;;5054538;28;20040;-69
2022/10/11 05:23:42;;;;;;;10.65;3.75;;;3.90;99.90;;;;;;5055285;28;20087;-69
2022/10/11 05:26:09;;;;;;;10.88;4.82;;;3.90;99.90;;;;;;5054350;28;20041;-69
2022/10/11 05:28:36;;;;;;;9.02;4.25;;;3.90;99.90;;;;;;5054186;28;20045;-69
2022/10/11 05:31:03;;;;;;;16.25;5.15;;;3.90;99.90;;;;;;5055119;28;20102;-68
2022/10/11 05:33:30;;;;;;;10.65;4.50;;;3.90;99.90;;;;;;5054293;28;20045;-69
2022/10/11 05:35:57;;;;;;;11.25;3.63;;;3.90;99.90;;;;;;5054216;28;20098;-68
2022/10/11 05:38:24;;;;;;;9.27;3.83;;;3.80;99.90;;;;;;5054519;28;20080;-69
2022/10/11 05:40:51;;;;;;;13.85;4.20;;;3.80;99.90;;;;;;5037565;28;20075;-69
2022/10/11 05:43:18;;;;;;;11.43;4.32;;;3.80;99.90;;;;;;5037817;28;20052;-68
2022/10/11 05:45:45;;;;;;;14.50;5.60;;;3.80;99.90;;;;;;5037466;28;20049;-69
2022/10/11 05:48:12;;;;;;;9.60;4.00;;;3.90;99.90;;;;;;5054077;28;20048;-69
2022/10/11 05:50:39;;;;;;;8.18;3.60;;;3.90;99.90;;;;;;5055503;28;20053;-69
2022/10/11 05:53:06;;;;;;;11.40;4.70;;;3.90;99.90;;;;;;5054518;28;20136;-69
2022/10/11 05:55:39;;;;;;;11.73;4.85;;;3.90;99.90;;;;;;5053889;28;20064;-69
2022/10/11 05:58:07;;;;;;;7.68;4.18;;;3.90;99.90;;;;;;5053541;28;20106;-69
2022/10/11 06:00:37;;;;;;;8.52;3.85;;;3.90;99.90;;;;;;5053544;28;20044;-69
2022/10/11 06:03:05;;;;;;;14.52;4.43;;;3.90;99.90;;;;;;5054657;28;20040;-68
2022/10/11 06:05:33;;;;;;;12.15;4.53;;;3.80;99.90;;;;;;5037979;28;20049;-69
2022/10/11 06:08:00;;;;;;;9.75;4.55;;;3.80;99.90;;;;;;5054405;28;20045;-69
2022/10/11 06:10:27;;;;;;;15.07;5.70;;;3.80;99.90;;;;;;5053526;28;20488;-69
2022/10/11 06:12:54;;;;;;;13.25;5.40;;;3.80;99.90;;;;;;5053879;28;20380;-69
2022/10/11 06:15:21;;;;;;;16.92;9.13;;;3.80;99.90;;;;;;5055394;28;20041;-69
2022/10/11 06:17:47;;;;;;;11.43;7.60;;;3.70;99.90;;;;;;5054652;28;20522;-67
2022/10/11 06:20:14;;;;;;;25.00;14.82;;;3.80;99.90;;;;;;5053421;28;20362;-69
2022/10/11 06:22:41;;;;;;;20.27;11.88;;;3.80;99.90;;;;;;5054208;28;20041;-69
2022/10/11 06:25:08;;;;;;;11.10;6.75;;;3.80;99.90;;;;;;5036831;28;20369;-69
2022/10/11 06:27:35;;;;;;;129.30;75.80;;;3.80;99.90;;;;;;5052909;28;20481;-70
2022/10/11 06:30:03;;;;;;;26.70;15.50;;;3.80;99.90;;;;;;5052977;28;20045;-69
2022/10/11 06:32:30;;;;;;;29.35;17.40;;;3.90;99.90;;;;;;5053361;28;20431;-68
2022/10/11 06:34:56;;;;;;;32.90;19.27;;;3.80;99.90;;;;;;5053744;28;20060;-69
2022/10/11 06:37:23;;;;;;;23.13;15.23;;;3.80;99.90;;;;;;5054456;28;20073;-68
2022/10/11 06:39:50;;;;;;;20.08;13.32;;;3.90;99.90;;;;;;5055320;28;20045;-68
2022/10/11 06:42:17;;;;;;;12.30;8.23;;;3.80;99.90;;;;;;5053041;28;20091;-69
2022/10/11 06:44:44;;;;;;;59.55;38.05;;;3.90;99.90;;;;;;5054591;28;20076;-68
2022/10/11 06:47:11;;;;;;;53.58;30.75;;;3.90;99.90;;;;;;5037396;28;20193;-67
2022/10/11 06:49:37;;;;;;;35.70;18.17;;;4.00;99.90;;;;;;5052543;28;20095;-68
2022/10/11 06:52:04;;;;;;;20.52;13.60;;;4.00;99.90;;;;;;5068979;28;20102;-68
2022/10/11 06:54:31;;;;;;;16.00;8.32;;;4.00;99.90;;;;;;5053728;28;20040;-68
2022/10/11 06:56:58;;;;;;;17.23;7.70;;;4.10;99.90;;;;;;5053530;28;20060;-69
2022/10/11 06:59:25;;;;;;;11.88;6.82;;;4.10;99.90;;;;;;5052136;28;20098;-69
2022/10/11 07:01:52;;;;;;;11.63;5.95;;;4.20;99.90;;;;;;5052072;28;20428;-69
2022/10/11 07:04:19;;;;;;;15.65;5.57;;;4.20;99.90;;;;;;5053796;28;20071;-69
2022/10/11 07:06:46;;;;;;;13.00;5.10;;;4.30;99.90;;;;;;5052268;28;20049;-69
2022/10/11 07:09:13;;;;;;;11.20;4.90;;;4.30;99.90;;;;;;5052237;28;20087;-67
2022/10/11 07:11:40;;;;;;;14.10;5.78;;;4.40;99.90;;;;;;5052366;28;20044;-66
2022/10/11 07:14:07;;;;;;;9.38;4.57;;;4.50;99.90;;;;;;5035668;28;20052;-66
2022/10/11 07:16:35;;;;;;;19.85;6.82;;;4.50;99.90;;;;;;5052152;28;20472;-67
2022/10/11 07:19:03;;;;;;;10.27;4.93;;;4.50;99.90;;;;;;5037080;28;20045;-66
2022/10/11 07:21:30;;;;;;;13.38;4.82;;;4.60;99.90;;;;;;5052738;28;20381;-67
2022/10/11 07:23:57;;;;;;;20.60;10.57;;;4.60;99.90;;;;;;5036723;28;20044;-66
2022/10/11 07:26:25;;;;;;;31.98;22.90;;;4.70;99.90;;;;;;5052302;28;20048;-68
2022/10/11 07:28:52;;;;;;;40.78;23.23;;;4.70;99.90;;;;;;5069630;28;20056;-64
2022/10/11 07:31:21;;;;;;;17.70;9.10;;;4.80;99.90;;;;;;5051879;28;20041;-67
2022/10/11 07:33:48;;;;;;;23.48;11.02;;;4.80;99.90;;;;;;5052682;28;20048;-66
2022/10/11 07:36:15;;;;;;;26.75;13.50;;;4.90;99.90;;;;;;5052942;28;20162;-66
2022/10/11 07:38:42;;;;;;;14.98;7.60;;;4.90;99.90;;;;;;5052982;28;20036;-66
2022/10/11 07:41:09;;;;;;;15.85;7.38;;;5.00;99.90;;;;;;5035370;28;20091;-70
2022/10/11 07:43:37;;;;;;;85.88;53.92;;;5.00;99.90;;;;;;5053232;28;20052;-69
2022/10/11 07:46:04;;;;;;;26.83;11.15;;;5.10;99.90;;;;;;5053127;28;20059;-67
2022/10/11 07:48:35;;;;;;;21.42;11.77;;;5.20;99.90;;;;;;5052055;28;20045;-67
2022/10/11 07:51:16;;;;;;;12.80;7.85;;;5.30;99.90;;;;;;5069255;28;20106;-68
2022/10/11 07:53:44;;;;;;;13.43;6.43;;;5.40;99.90;;;;;;5052898;28;20041;-66
2022/10/11 07:56:13;;;;;;;22.42;8.43;;;5.40;99.90;;;;;;5051646;28;20048;-69
2022/10/11 07:58:40;;;;;;;10.85;5.35;;;5.50;99.90;;;;;;5051975;28;20080;-66
2022/10/11 08:01:08;;;;;;;18.35;6.57;;;5.50;99.90;;;;;;5051736;28;20106;-67
2022/10/11 08:03:35;;;;;;;20.15;6.65;;;5.60;99.90;;;;;;5035766;28;20124;-67
2022/10/11 08:06:03;;;;;;;13.48;6.85;;;5.70;99.90;;;;;;5052785;28;20049;-67
2022/10/11 08:08:31;;;;;;;19.13;5.90;;;5.70;99.90;;;;;;5052590;28;20324;-66
2022/10/11 08:10:58;;;;;;;22.40;6.05;;;5.80;99.90;;;;;;5038118;28;20045;-65
2022/10/11 08:13:25;;;;;;;18.30;6.30;;;5.90;99.90;;;;;;5039122;28;20041;-71
2022/10/11 08:15:52;;;;;;;27.10;11.85;;;6.00;99.90;;;;;;5057408;28;20040;-67
2022/10/11 08:18:19;;;;;;;32.05;17.25;;;6.10;99.90;;;;;;5055598;28;20056;-69
2022/10/11 08:20:46;;;;;;;19.75;8.95;;;6.20;99.90;;;;;;5055836;28;20044;-69
2022/10/11 08:23:13;;;;;;;15.18;5.43;;;6.30;99.90;;;;;;5057058;28;20095;-68
2022/10/11 08:25:41;;;;;;;18.30;5.15;;;6.30;99.90;;;;;;5055588;28;20041;-66
2022/10/11 08:28:08;;;;;;;16.92;5.55;;;6.40;99.90;;;;;;5055314;28;20091;-68
2022/10/11 08:30:36;;;;;;;15.30;6.63;;;6.40;99.90;;;;;;5057244;28;20053;-67
2022/10/11 08:33:03;;;;;;;16.75;6.40;;;6.50;99.90;;;;;;5039534;28;20060;-69
2022/10/11 08:35:35;;;;;;;17.75;6.18;;;6.60;99.90;;;;;;5055905;28;20063;-67
2022/10/11 08:38:02;;;;;;;20.00;6.43;;;6.70;99.90;;;;;;5038863;28;20044;-67
2022/10/11 08:40:28;;;;;;;18.80;6.78;;;6.70;99.90;;;;;;5056090;28;20053;-70
2022/10/11 08:43:05;;;;;;;18.23;7.15;;;6.80;99.90;;;;;;5039565;28;20131;-68
2022/10/11 08:45:42;;;;;;;16.48;6.10;;;6.90;99.90;;;;;;5055965;28;20136;-69
2022/10/11 08:48:33;;;;;;;10.38;6.57;;;7.00;99.90;;;;;;5038661;28;20041;-66
2022/10/11 08:51:00;;;;;;;27.15;7.93;;;7.10;99.90;;;;;;5055362;28;20041;-68
2022/10/11 08:53:40;;;;;;;24.58;7.90;;;7.10;99.90;;;;;;5055169;28;20450;-67
2022/10/11 08:56:07;;;;;;;21.55;7.50;;;7.20;99.90;;;;;;5054748;28;20484;-65
2022/10/11 08:58:44;;;;;;;17.70;7.43;;;7.30;99.90;;;;;;5054575;28;20435;-66
2022/10/11 09:01:22;;;;;;;21.67;6.63;;;7.40;99.90;;;;;;5055297;28;20092;-66
2022/10/11 09:03:49;;;;;;;20.45;6.63;;;7.50;99.90;;;;;;5055571;28;20068;-65
2022/10/11 09:06:22;;;;;;;20.55;6.88;;;7.60;99.90;;;;;;5054640;28;20091;-65
2022/10/11 09:09:21;;;;;;;21.25;6.72;;;7.70;99.90;;;;;;5055143;28;20461;-64
2022/10/11 09:12:10;;;;;;;25.23;6.38;;;7.80;99.90;;;;;;5047817;28;20476;-66
2022/10/11 09:15:10;;;;;;;17.42;7.15;;;7.90;99.90;;;;;;5055879;28;20157;-66
2022/10/11 09:17:40;;;;;;;21.50;7.38;;;8.00;99.90;;;;;;5054605;28;20053;-68
2022/10/11 09:20:36;;;;;;;18.38;5.35;;;8.20;99.90;;;;;;5056021;28;20083;-66
2022/10/11 09:23:15;;;;;;;26.35;7.63;;;8.30;99.90;;;;;;5040313;28;20098;-68
2022/10/11 09:25:54;;;;;;;17.67;6.22;;;8.40;99.90;;;;;;5055417;28;20076;-67
2022/10/11 09:28:41;;;;;;;25.83;7.25;;;8.50;99.90;;;;;;5054876;28;20083;-67
2022/10/11 09:31:09;;;;;;;20.00;6.60;;;8.50;99.90;;;;;;5055116;28;20040;-72
2022/10/11 09:33:37;;;;;;;23.23;6.80;;;8.60;99.90;;;;;;5055257;28;20496;-69
2022/10/11 09:36:35;;;;;;;19.97;6.33;;;8.70;99.90;;;;;;5037898;28;20477;-71
2022/10/11 09:39:44;;;;;;;16.35;5.82;;;8.90;99.90;;;;;;5055951;28;20270;-68
2022/10/11 09:42:11;;;;;;;16.75;6.13;;;9.00;99.90;;;;;;5042490;28;20158;-68
2022/10/11 09:44:56;;;;;;;23.55;6.03;;;9.10;99.90;;;;;;5054567;28;20041;-67
2022/10/11 09:47:24;;;;;;;28.88;12.10;;;9.10;99.90;;;;;;5055881;28;20044;-68
2022/10/11 09:50:03;;;;;;;22.92;10.02;;;9.20;99.90;;;;;;5054858;28;20041;-68
2022/10/11 09:52:30;;;;;;;31.43;7.67;;;9.20;99.90;;;;;;5054038;28;20094;-66
2022/10/11 09:54:59;;;;;;;20.90;7.63;;;9.30;99.90;;;;;;5054106;28;20045;-67
2022/10/11 09:57:27;;;;;;;20.30;6.97;;;9.40;99.90;;;;;;5037531;28;20037;-66
2022/10/11 10:00:05;;;;;;;29.95;6.65;;;9.50;99.90;;;;;;5053959;28;20098;-65
2022/10/11 10:02:46;;;;;;;18.05;6.28;;;9.60;99.90;;;;;;5053689;28;20106;-66
2022/10/11 10:05:35;;;;;;;22.13;7.85;;;9.70;99.90;;;;;;5053547;28;20095;-66
2022/10/11 10:08:04;;;;;;;17.27;5.47;;;9.70;99.90;;;;;;5053567;28;20045;-66
2022/10/11 10:10:37;;;;;;;15.93;6.18;;;9.70;99.90;;;;;;5053377;28;20059;-65
2022/10/11 10:13:05;;;;;;;13.93;4.45;;;9.80;99.90;;;;;;5054662;28;20049;-66
2022/10/11 10:15:36;;;;;;;16.83;5.45;;;9.80;99.90;;;;;;5053368;28;20060;-66
2022/10/11 10:18:04;;;;;;;15.23;4.97;;;9.90;99.90;;;;;;5037860;28;20045;-67
2022/10/11 10:20:33;;;;;;;14.50;5.20;;;9.90;99.90;;;;;;5054301;28;20412;-65
2022/10/11 10:23:08;;;;;;;20.20;5.47;;;10.00;99.90;;;;;;5054694;28;20045;-65
2022/10/11 10:25:37;;;;;;;18.52;5.53;;;10.00;99.90;;;;;;5053940;28;20048;-66
2022/10/11 10:28:35;;;;;;;17.05;5.10;;;10.10;99.90;;;;;;5055238;28;20055;-67
2022/10/11 10:31:02;;;;;;;20.70;5.07;;;10.20;99.90;;;;;;5052881;28;20454;-65
2022/10/11 10:33:32;;;;;;;16.50;4.85;;;10.20;99.90;;;;;;5053457;28;20103;-68
2022/10/11 10:36:14;;;;;;;21.15;5.55;;;10.30;99.90;;;;;;5052627;28;20040;-66
2022/10/11 10:38:46;;;;;;;22.92;5.60;;;10.30;99.90;;;;;;5053177;28;20098;-67
2022/10/11 10:41:18;;;;;;;20.67;5.30;;;10.50;99.90;;;;;;5054064;28;20080;-66
2022/10/11 10:43:53;;;;;;;16.85;5.25;;;10.60;99.90;;;;;;5052763;28;20056;-64
2022/10/11 10:46:35;;;;;;;13.27;4.43;;;10.80;99.90;;;;;;5052963;28;20469;-67
2022/10/11 10:49:31;;;;;;;12.65;5.30;;;10.80;99.90;;;;;;5037379;28;20053;-67
2022/10/11 10:53:12;;;;;;;297.75;229.13;;;10.90;99.90;;;;;;5039257;28;20135;-65
2022/10/11 10:56:18;;;;;;;52.60;30.80;;;11.00;99.90;;;;;;5031756;28;20044;-65
2022/10/11 10:59:04;;;;;;;21.13;7.85;;;11.00;99.90;;;;;;5015227;28;20083;-63
2022/10/11 11:01:32;;;;;;;15.77;5.20;;;11.10;99.90;;;;;;5031884;28;20049;-64
2022/10/11 11:04:17;;;;;;;12.15;4.95;;;11.20;99.90;;;;;;5020698;28;20048;-64
2022/10/11 11:06:55;;;;;;;15.80;4.13;;;11.30;99.90;;;;;;5053394;28;20041;-64
2022/10/11 11:09:56;;;;;;;14.35;3.75;;;11.30;99.90;;;;;;5052229;28;20094;-64
2022/10/11 11:12:35;;;;;;;21.27;5.25;;;11.40;99.90;;;;;;5038701;28;20404;-64
2022/10/11 11:15:25;;;;;;;;;;;11.40;99.90;;;;;;5053803;28;20037;-64
2022/10/11 11:18:28;;;;;;;15.02;3.83;;;11.50;99.90;;;;;;5052172;28;19948;-64
2022/10/11 11:21:27;;;;;;;10.65;2.80;;;11.60;99.90;;;;;;5052200;28;20075;-65
2022/10/11 11:24:21;;;;;;;12.65;4.57;;;11.70;99.90;;;;;;5053330;28;20037;-67
2022/10/11 11:27:01;;;;;;;13.90;3.50;;;11.60;99.90;;;;;;5052426;28;20382;-65
2022/10/11 11:29:46;;;;;;;13.27;3.30;;;11.70;99.90;;;;;;5036478;28;20462;-64
2022/10/11 11:32:45;;;;;;;11.73;3.55;;;11.70;99.90;;;;;;5052730;28;20051;-61
2022/10/11 11:35:18;;;;;;;13.13;3.22;;;11.70;99.90;;;;;;5041443;28;20045;-62
2022/10/11 11:37:45;;;;;;;12.93;3.28;;;11.70;99.90;;;;;;5052946;28;20040;-62
2022/10/11 11:40:16;;;;;;;10.55;3.20;;;11.80;99.90;;;;;;5052200;28;20085;-62
2022/10/11 11:42:48;;;;;;;11.60;3.80;;;11.80;99.90;;;;;;5051977;28;20045;-63
2022/10/11 11:45:40;;;;;;;13.88;3.72;;;11.90;99.90;;;;;;5051582;28;20090;-63
2022/10/11 11:48:15;;;;;;;14.70;3.90;;;11.90;99.90;;;;;;5053081;28;20044;-62
2022/10/11 11:50:45;;;;;;;13.65;3.08;;;12.00;99.90;;;;;;5036425;28;20045;-62
2022/10/11 11:53:14;;;;;;;13.35;2.97;;;12.10;99.90;;;;;;5051960;28;20044;-62
2022/10/11 11:55:54;;;;;;;13.45;3.67;;;12.20;99.90;;;;;;5051570;28;20049;-62
2022/10/11 11:58:28;;;;;;;17.25;5.30;;;12.30;99.90;;;;;;5053673;28;20045;-64
2022/10/11 12:01:25;;;;;;;13.13;3.63;;;12.40;99.90;;;;;;5053983;28;20045;-66
2022/10/11 12:04:01;;;;;;;16.98;5.47;;;12.40;99.90;;;;;;5052224;28;20433;-64
2022/10/11 12:06:32;;;;;;;16.42;3.95;;;12.40;99.90;;;;;;5036174;28;20041;-65
2022/10/11 12:09:20;;;;;;;11.55;4.47;;;12.50;99.90;;;;;;5035413;28;20515;-62
2022/10/11 12:12:03;;;;;;;15.98;3.30;;;12.50;99.90;;;;;;5052938;28;20094;-63
2022/10/11 12:14:33;;;;;;;12.88;4.47;;;12.50;99.90;;;;;;5051767;28;20538;-64
2022/10/11 12:17:15;;;;;;;12.10;3.70;;;12.50;99.90;;;;;;5051602;28;20076;-66
2022/10/11 12:19:58;;;;;;;9.30;2.88;;;12.50;99.90;;;;;;5052838;28;20048;-72
2022/10/11 12:22:28;;;;;;;14.55;3.33;;;12.60;99.90;;;;;;5052049;28;20041;-69
2022/10/11 12:24:59;;;;;;;13.88;3.53;;;12.60;99.90;;;;;;5053893;28;20102;-66
2022/10/11 12:27:41;;;;;;;14.43;4.05;;;12.70;99.90;;;;;;5052003;28;20098;-67
2022/10/11 12:30:54;;;;;;;13.18;4.18;;;12.80;99.90;;;;;;5052215;28;20483;-66
2022/10/11 12:33:44;;;;;;;12.32;3.55;;;13.00;99.90;;;;;;5053659;28;20053;-65
2022/10/11 12:36:27;;;;;;;10.48;3.38;;;13.00;99.90;;;;;;5052493;28;20037;-67
2022/10/11 12:39:19;;;;;;;13.23;3.75;;;13.00;99.90;;;;;;5052849;28;20539;-66
2022/10/11 12:41:49;;;;;;;14.77;3.20;;;13.00;99.90;;;;;;5053045;28;20045;-68
2022/10/11 12:44:25;;;;;;;13.00;4.70;;;13.10;99.90;;;;;;5052305;28;20049;-70
2022/10/11 12:46:56;;;;;;;13.88;3.97;;;13.20;99.90;;;;;;5051447;28;20124;-69
2022/10/11 12:49:29;;;;;;;9.85;3.10;;;13.20;99.90;;;;;;5054007;28;20048;-68
2022/10/11 12:52:02;;;;;;;46.92;38.53;;;13.20;99.90;;;;;;5053474;28;20041;-69
2022/10/11 12:54:29;;;;;;;173.88;126.75;;;13.20;99.90;;;;;;5053215;28;20469;-70
2022/10/11 12:57:08;;;;;;;22.65;10.82;;;13.20;99.90;;;;;;5056138;28;20045;-68
2022/10/11 12:59:40;;;;;;;14.00;5.03;;;13.30;99.90;;;;;;5056461;28;20052;-69
2022/10/11 13:02:19;;;;;;;;;;;13.30;99.90;;;;;;5055569;28;20057;-68
2022/10/11 13:04:46;;;;;;;15.65;5.20;;;13.30;99.90;;;;;;5056957;28;19924;-67
2022/10/11 13:07:14;;;;;;;22.45;14.10;;;13.30;99.90;;;;;;5056555;28;20051;-66
2022/10/11 13:09:42;;;;;;;15.68;5.90;;;13.40;99.90;;;;;;5039326;28;20056;-67
2022/10/11 13:12:18;;;;;;;11.93;3.78;;;13.50;99.90;;;;;;5055737;28;20055;-68